RKTU/CHN METAR and TAF weather

Enter ICAO airport designator
Station Type Date Time Source
RKTU METAR 2021/09/28 16:00 UTC NOAA

RKTU 281600Z 05001KT 8000 BKN030 BKN060 20/20 Q1010


Station Type Date Time Source
RKTU Decoded METAR 2021/09/28 16:00 UTC NOAA

Chongju Ab, Korea, South (RKTU) 36-42N 127-30E 66M
Sep 28, 2021 - 12:00 PM EDT / 2021.09.28 1600 UTC
Wind: from the NE (050 degrees) at 1 MPH (1 KT):0
Visibility: 4 mile(s):0
Sky conditions: mostly cloudy
Temperature: 68 F (20 C)
Dew Point: 68 F (20 C)
Relative Humidity: 100%
Pressure (altimeter): 29.83 in. Hg (1010 hPa)
ob: RKTU 281600Z 05001KT 8000 BKN030 BKN060 20/20 Q1010
cycle: 16

Station Type Date Time Source
RKTU TAF 2021/09/28 15:50 UTC NOAA

TAF
AMD RKTU 281550Z 2815/2918 06006KT 8000 BKN030 BKN100 TN18/2821Z TX25/2906Z
BECMG 2902/2903 18006KT 9000 -RA
BECMG 2905/2906 21006KT 4800 -RA BR BKN015 OVC030

Example: see airport list